Time;durP1;ratioP1;P1;durP2;ratioP2;P2;SDS_P1;SDS_P2;PMS_P1;PMS_P2;Temp;Humidity;BMP_temperature;BMP_pressure;BME280_temperature;BME280_humidity;BME280_pressure;Samples;Min_cycle;Max_cycle;Signal;HPM_P1;HPM_P2
2022/10/23 00:00:47;;;;;;;17.27;11.10;;;;;;;12.77;83.46;63315.50;4976821;28;20742;-76
2022/10/23 00:03:14;;;;;;;15.93;10.68;;;;;;;12.74;83.60;63312.41;4984670;28;20251;-76
2022/10/23 00:05:41;;;;;;;16.00;11.02;;;;;;;12.72;84.34;63315.44;4984209;28;20227;-76
2022/10/23 00:08:08;;;;;;;18.95;10.57;;;;;;;12.63;84.97;63301.00;4977134;28;20228;-75
2022/10/23 00:10:35;;;;;;;18.05;10.65;;;;;;;12.58;85.32;63293.25;4985287;28;20204;-77
2022/10/23 00:13:02;;;;;;;14.48;10.38;;;;;;;12.65;83.87;63305.63;4980638;28;20228;-77
2022/10/23 00:15:29;;;;;;;14.02;10.18;;;;;;;12.73;83.53;63311.34;4970399;28;20200;-77
2022/10/23 00:17:57;;;;;;;13.45;10.15;;;;;;;12.63;84.41;63303.03;4978122;28;20217;-78
2022/10/23 00:20:24;;;;;;;12.20;8.82;;;;;;;12.67;84.76;63304.63;4984418;28;20211;-76
2022/10/23 00:22:51;;;;;;;12.68;9.13;;;;;;;12.77;82.47;63315.00;4977538;28;20232;-76
2022/10/23 00:25:19;;;;;;;15.02;9.23;;;;;;;12.80;83.52;63320.66;4981517;28;20219;-76
2022/10/23 00:27:46;;;;;;;12.80;8.55;;;;;;;12.69;82.41;63309.78;4968564;28;20509;-77
2022/10/23 00:30:13;;;;;;;8.27;6.38;;;;;;;12.67;81.04;63307.19;4970217;28;20234;-76
2022/10/23 00:32:40;;;;;;;7.93;6.57;;;;;;;12.88;77.62;63325.88;4982512;28;20310;-76
2022/10/23 00:35:10;;;;;;;15.38;6.57;;;;;;;13.02;75.06;63340.44;4987600;28;20204;-76
2022/10/23 00:37:36;;;;;;;10.45;6.85;;;;;;;13.18;75.40;63362.66;4982233;28;20456;-77
2022/10/23 00:40:04;;;;;;;10.10;6.50;;;;;;;13.18;73.66;63355.00;4973576;28;20211;-76
2022/10/23 00:42:31;;;;;;;13.23;7.30;;;;;;;13.26;73.54;63365.31;4973669;28;20235;-77
2022/10/23 00:45:26;;;;;;;9.82;7.13;;;;;;;13.37;73.06;63374.19;4975053;28;20200;-77
2022/10/23 00:47:54;;;;;;;9.23;6.00;;;;;;;13.31;72.88;63371.03;4987521;28;20242;-75
2022/10/23 00:50:25;;;;;;;11.57;6.43;;;;;;;13.34;72.68;63373.63;4987235;28;20199;-77
2022/10/23 00:52:54;;;;;;;6.95;6.25;;;;;;;13.43;72.20;63383.47;4988898;28;20228;-76
2022/10/23 00:55:23;;;;;;;9.68;6.03;;;;;;;13.36;71.42;63375.69;4981706;28;20207;-76
2022/10/23 00:57:51;;;;;;;9.05;5.30;;;;;;;13.48;69.29;63388.16;4973486;28;20225;-76
2022/10/23 01:00:21;;;;;;;7.07;5.55;;;;;;;13.58;68.74;63399.03;4977379;28;20212;-77
2022/10/23 01:02:48;;;;;;;10.50;6.20;;;;;;;13.66;68.30;63406.84;4971364;28;20280;-75
2022/10/23 01:05:15;;;;;;;11.40;6.18;;;;;;;13.67;68.79;63407.88;4981849;28;20211;-76
2022/10/23 01:07:56;;;;;;;7.78;5.60;;;;;;;13.70;69.34;63414.06;4987522;28;20445;-77
2022/10/23 01:10:31;;;;;;;7.28;5.43;;;;;;;13.67;69.93;63408.38;4986610;28;20207;-76
2022/10/23 01:13:05;;;;;;;9.18;5.72;;;;;;;13.67;70.39;63408.38;4985371;28;20299;-75
2022/10/23 01:15:37;;;;;;;8.73;5.82;;;;;;;13.63;72.01;63401.16;4984380;28;20452;-76
2022/10/23 01:18:12;;;;;;;9.30;5.70;;;;;;;13.58;70.66;63393.94;4975245;28;20227;-77
2022/10/23 01:20:44;;;;;;;5.57;4.78;;;;;;;13.57;70.15;63398.00;4985952;28;20279;-75
2022/10/23 01:23:32;;;;;;;10.27;7.90;;;;;;;13.48;73.90;63386.09;4982552;28;20204;-76
2022/10/23 01:26:26;;;;;;;13.98;10.07;;;;;;;13.32;75.90;63371.56;4978828;28;20786;-76
2022/10/23 01:29:00;;;;;;;15.40;10.48;;;;;;;13.16;77.65;63360.06;4968514;28;20255;-76
2022/10/23 01:31:33;;;;;;;15.63;10.07;;;;;;;13.00;79.31;63346.00;4978333;28;20224;-75
2022/10/23 01:34:07;;;;;;;20.23;11.18;;;;;;;12.85;81.00;63322.78;4982736;28;20223;-75
2022/10/23 01:36:38;;;;;;;16.52;11.25;;;;;;;12.61;83.56;63300.97;4973387;28;20271;-77
2022/10/23 01:39:08;;;;;;;16.63;11.18;;;;;;;12.57;84.39;63296.81;4988711;28;20227;-77
2022/10/23 01:41:40;;;;;;;18.65;11.07;;;;;;;12.39;84.95;63275.59;4981862;28;20231;-76
2022/10/23 01:44:13;;;;;;;17.60;12.13;;;;;;;12.26;85.31;63257.53;4969578;28;20200;-76
2022/10/23 01:46:43;;;;;;;12.93;10.55;;;;;;;12.18;86.62;63256.91;4987373;28;20224;-76
2022/10/23 01:49:13;;;;;;;19.20;11.60;;;;;;;12.06;87.56;63238.84;4981864;28;20448;-76
2022/10/23 01:51:45;;;;;;;23.20;11.68;;;;;;;11.88;90.13;63225.28;4986570;28;20250;-76
2022/10/23 01:54:14;;;;;;;13.95;10.68;;;;;;;11.67;93.39;63200.97;4974966;28;20201;-76
2022/10/23 01:56:44;;;;;;;13.45;11.43;;;;;;;11.62;94.07;63196.81;4983152;28;20267;-77
2022/10/23 01:59:16;;;;;;;17.02;12.38;;;;;;;11.62;93.12;63198.84;4985036;28;20203;-76
2022/10/23 02:01:47;;;;;;;18.42;13.25;;;;;;;11.62;93.59;63196.31;4972482;28;20224;-76
2022/10/23 02:04:19;;;;;;;18.05;11.65;;;;;;;11.60;93.98;63196.78;4980997;28;20232;-77
2022/10/23 02:06:46;;;;;;;20.90;11.57;;;;;;;11.46;94.04;63182.78;4983014;28;20271;-77
2022/10/23 02:09:14;;;;;;;15.90;10.05;;;;;;;11.50;94.81;63178.78;4988863;28;20231;-76
2022/10/23 02:11:48;;;;;;;13.90;10.35;;;;;;;11.47;95.66;63183.84;4984547;28;20224;-76
2022/10/23 02:14:25;;;;;;;19.40;11.38;;;;;;;11.27;96.87;63163.09;4996859;28;20401;-76
2022/10/23 02:16:54;;;;;;;16.98;10.70;;;;;;;11.26;97.06;63159.53;4986981;28;20259;-75
2022/10/23 02:19:26;;;;;;;14.50;10.60;;;;;;;11.26;96.74;63161.56;4995980;28;20508;-76
2022/10/23 02:22:01;;;;;;;14.93;11.77;;;;;;;11.26;96.26;63159.00;5001707;28;20223;-75
2022/10/23 02:24:31;;;;;;;13.48;10.57;;;;;;;11.27;96.78;63163.09;4985559;28;20275;-75
2022/10/23 02:27:02;;;;;;;14.13;10.57;;;;;;;11.37;96.25;63172.97;4976595;28;20595;-76
2022/10/23 02:29:35;;;;;;;16.38;11.90;;;;;;;11.42;95.68;63175.59;4966805;29;20575;-77
2022/10/23 02:32:02;;;;;;;15.80;9.77;;;;;;;11.53;94.47;63187.50;4966993;28;20362;-75
2022/10/23 02:34:29;;;;;;;13.57;10.57;;;;;;;11.59;94.03;63193.72;4972567;28;20204;-76
2022/10/23 02:36:56;;;;;;;22.98;10.50;;;;;;;11.75;92.15;63206.72;4984544;28;20220;-76
2022/10/23 02:39:26;;;;;;;17.15;10.30;;;;;;;11.86;91.66;63220.66;4986101;28;20243;-76
2022/10/23 02:42:01;;;;;;;18.40;10.27;;;;;;;11.94;90.25;63229.47;4972933;28;20271;-76
2022/10/23 02:44:46;;;;;;;14.93;9.77;;;;;;;12.04;89.09;63239.84;4978789;28;20203;-75
2022/10/23 02:47:25;;;;;;;10.43;7.70;;;;;;;12.14;88.71;63250.22;4968418;28;20232;-77
2022/10/23 02:49:59;;;;;;;11.93;7.70;;;;;;;12.20;86.56;63256.41;4968686;28;20216;-76
2022/10/23 02:52:38;;;;;;;13.60;8.15;;;;;;;12.20;87.70;63255.91;4977370;28;20220;-76
2022/10/23 02:55:14;;;;;;;10.82;7.72;;;;;;;12.27;87.41;63271.34;4978054;28;20204;-76
2022/10/23 02:57:46;;;;;;;12.25;7.55;;;;;;;12.32;86.36;63273.97;4987431;28;20215;-76
2022/10/23 03:00:17;;;;;;;8.73;7.70;;;;;;;12.31;86.35;63265.28;4984235;28;20201;-75
2022/10/23 03:02:46;;;;;;;12.52;7.55;;;;;;;12.32;83.43;63268.84;4986120;28;20271;-76
2022/10/23 03:05:18;;;;;;;11.43;7.20;;;;;;;12.41;79.89;63280.75;4972120;28;20243;-76
2022/10/23 03:07:47;;;;;;;9.38;6.32;;;;;;;12.59;76.02;63298.88;4984914;28;20306;-78
2022/10/23 03:10:14;;;;;;;10.77;6.25;;;;;;;12.76;73.52;63314.47;4977510;28;20211;-76
2022/10/23 03:12:41;;;;;;;18.15;7.03;;;;;;;12.77;73.52;63320.63;4977531;28;20227;-76
2022/10/23 03:15:09;;;;;;;10.82;6.38;;;;;;;12.87;71.71;63324.84;4966419;28;20215;-76
2022/10/23 03:17:37;;;;;;;10.82;6.28;;;;;;;12.86;71.75;63326.38;4975627;28;20228;-75
2022/10/23 03:20:04;;;;;;;12.50;5.60;;;;;;;12.87;70.44;63333.03;4980979;28;20251;-75
2022/10/23 03:22:31;;;;;;;7.55;6.47;;;;;;;12.93;69.57;63331.06;4983665;28;20271;-76
2022/10/23 03:24:58;;;;;;;8.13;6.00;;;;;;;12.97;69.54;63338.31;4983686;28;20280;-75
2022/10/23 03:27:25;;;;;;;9.45;6.47;;;;;;;13.03;69.22;63338.91;4969213;28;20275;-76
2022/10/23 03:29:52;;;;;;;12.27;5.55;;;;;;;13.06;67.90;63342.03;4966447;28;20248;-76
2022/10/23 03:32:19;;;;;;;7.53;6.47;;;;;;;13.13;67.15;63352.34;4982376;28;20263;-77
2022/10/23 03:34:47;;;;;;;8.70;5.63;;;;;;;13.13;67.83;63351.84;4978354;28;20207;-76
2022/10/23 03:37:14;;;;;;;7.65;5.65;;;;;;;13.13;67.81;63354.91;4978280;28;20379;-77
2022/10/23 03:39:41;;;;;;;7.78;5.85;;;;;;;13.22;67.79;63361.69;4984664;28;20207;-76
2022/10/23 03:42:08;;;;;;;11.80;6.43;;;;;;;13.25;68.75;63356.63;4986666;28;20224;-78
2022/10/23 03:44:35;;;;;;;9.60;5.68;;;;;;;13.27;67.23;63372.00;4987231;28;20274;-75
2022/10/23 03:47:02;;;;;;;14.43;5.80;;;;;;;13.27;66.50;63369.44;4977068;28;20638;-76
2022/10/23 03:49:29;;;;;;;6.72;5.32;;;;;;;13.26;65.76;63365.84;4977502;28;20240;-75
2022/10/23 03:51:58;;;;;;;9.85;5.20;;;;;;;13.33;66.75;63375.16;4989427;28;20325;-76
2022/10/23 03:54:28;;;;;;;9.68;5.18;;;;;;;13.21;66.08;63360.13;4984891;28;20235;-77
2022/10/23 03:56:56;;;;;;;4.82;4.43;;;;;;;13.25;64.43;63369.94;4986160;28;20299;-75
2022/10/23 03:59:23;;;;;;;8.32;4.70;;;;;;;13.18;64.93;63360.09;4985522;28;20204;-76
2022/10/23 04:01:50;;;;;;;9.60;4.95;;;;;;;13.13;64.98;63354.41;4969536;29;20224;-76
2022/10/23 04:04:17;;;;;;;8.43;5.15;;;;;;;13.19;65.09;63358.06;4984741;28;20242;-76
2022/10/23 04:06:44;;;;;;;5.63;5.05;;;;;;;13.09;65.70;63350.78;4983921;28;20228;-77
2022/10/23 04:09:12;;;;;;;7.05;4.78;;;;;;;13.07;64.73;63346.13;4986128;28;20221;-75
2022/10/23 04:11:39;;;;;;;10.30;6.30;;;;;;;13.11;62.83;63345.19;4976103;28;20219;-77
2022/10/23 04:14:06;;;;;;;10.32;5.18;;;;;;;13.18;62.83;63354.47;4977862;28;20200;-75
2022/10/23 04:16:33;;;;;;;10.15;5.20;;;;;;;13.16;63.00;63352.41;4972250;28;20396;-76
2022/10/23 04:19:00;;;;;;;8.75;4.80;;;;;;;13.21;62.07;63360.66;4988943;28;20200;-75
2022/10/23 04:21:27;;;;;;;7.30;4.68;;;;;;;13.19;62.05;63361.13;4989887;28;20219;-75
2022/10/23 04:23:54;;;;;;;6.32;4.03;;;;;;;13.25;61.66;63367.38;4975857;28;20205;-76
2022/10/23 04:26:22;;;;;;;6.05;3.88;;;;;;;13.18;61.76;63359.59;4990167;28;20284;-75
2022/10/23 04:28:49;;;;;;;11.65;4.57;;;;;;;13.25;61.25;63364.28;4970035;28;20469;-76
2022/10/23 04:31:16;;;;;;;8.00;3.85;;;;;;;13.27;60.40;63364.31;4980582;28;20224;-76
2022/10/23 04:33:43;;;;;;;6.97;4.05;;;;;;;13.31;60.00;63371.03;4985648;28;20196;-76
2022/10/23 04:36:10;;;;;;;6.78;4.20;;;;;;;13.35;59.99;63372.09;4990551;28;20223;-76
2022/10/23 04:38:37;;;;;;;5.13;4.07;;;;;;;13.30;59.76;63370.00;4971725;28;20204;-76
2022/10/23 04:41:04;;;;;;;7.88;4.22;;;;;;;13.31;59.56;63373.06;4986412;28;20255;-77
2022/10/23 04:43:32;;;;;;;6.03;3.95;;;;;;;13.31;58.92;63370.50;4985593;28;20204;-77
2022/10/23 04:45:59;;;;;;;8.13;3.97;;;;;;;13.27;59.06;63366.88;4989485;28;20258;-75
2022/10/23 04:48:26;;;;;;;5.38;3.60;;;;;;;13.30;58.22;63367.44;4984777;28;20532;-76
2022/10/23 04:50:57;;;;;;;12.60;4.25;;;;;;;13.55;58.07;63398.50;4978843;28;20211;-76
2022/10/23 04:53:24;;;;;;;6.57;4.22;;;;;;;13.58;59.02;63401.09;4982021;28;20227;-76
2022/10/23 04:55:52;;;;;;;7.13;4.97;;;;;;;13.80;59.79;63421.38;4975982;28;20500;-76
2022/10/23 04:58:19;;;;;;;7.90;4.45;;;;;;;13.84;59.91;63426.03;4987711;28;20215;-75
2022/10/23 05:00:49;;;;;;;10.55;5.03;;;;;;;13.95;60.57;63442.06;4975607;28;20196;-75
2022/10/23 05:03:16;;;;;;;7.97;4.82;;;;;;;14.01;59.95;63443.16;4979877;28;20208;-77
2022/10/23 05:05:44;;;;;;;8.30;4.63;;;;;;;13.99;59.91;63443.66;4968156;28;20497;-75
2022/10/23 05:08:11;;;;;;;5.57;4.95;;;;;;;13.99;60.13;63443.13;4981147;28;20532;-75
2022/10/23 05:10:38;;;;;;;8.18;5.10;;;;;;;13.96;60.76;63435.41;4979956;28;20200;-76
2022/10/23 05:13:05;;;;;;;12.98;5.40;;;;;;;13.99;60.23;63435.44;4984162;28;20216;-76
2022/10/23 05:15:32;;;;;;;6.53;4.95;;;;;;;14.06;60.80;63445.28;4970741;29;20200;-75
2022/10/23 05:18:10;;;;;;;8.57;5.05;;;;;;;14.07;61.50;63448.88;4980490;28;20259;-75
2022/10/23 05:20:39;;;;;;;5.43;4.57;;;;;;;14.29;62.01;63471.75;4980740;28;20526;-77
2022/10/23 05:23:10;;;;;;;6.80;5.55;;;;;;;14.36;62.15;63476.94;4978930;28;20264;-76
2022/10/23 05:25:37;;;;;;;7.53;5.07;;;;;;;14.43;61.30;63486.25;4977421;28;20227;-77
2022/10/23 05:28:04;;;;;;;9.98;5.50;;;;;;;14.49;61.61;63495.06;4979034;28;20268;-76
2022/10/23 05:30:32;;;;;;;5.65;4.50;;;;;;;14.56;62.37;63502.88;4990804;28;20245;-75
2022/10/23 05:33:02;;;;;;;5.95;4.97;;;;;;;14.71;62.16;63510.22;4969346;28;20264;-75
2022/10/23 05:35:30;;;;;;;12.93;4.85;;;;;;;14.82;62.57;63529.34;4971489;28;20211;-76
2022/10/23 05:37:58;;;;;;;5.47;4.50;;;;;;;15.04;67.10;63552.72;4982638;28;20264;-75
2022/10/23 05:40:25;;;;;;;9.32;5.53;;;;;;;15.13;73.11;63555.91;4985425;28;20546;-77
2022/10/23 05:42:52;;;;;;;8.30;5.10;;;;;;;15.22;73.62;63572.94;4979743;28;20570;-75
2022/10/23 05:45:19;;;;;;;7.35;5.72;;;;;;;15.29;73.44;63577.66;4985291;28;20243;-76
2022/10/23 05:47:46;;;;;;;6.35;5.43;;;;;;;15.38;74.57;63582.41;4984849;28;20220;-76
2022/10/23 05:50:15;;;;;;;8.48;5.57;;;;;;;15.54;75.20;63601.09;4982914;28;20264;-76
2022/10/23 05:52:41;;;;;;;11.10;6.15;;;;;;;15.59;76.77;63611.44;4981043;28;20259;-74
2022/10/23 05:55:11;;;;;;;6.03;4.68;;;;;;;15.61;78.01;63611.47;4986293;28;20458;-76
2022/10/23 05:57:37;;;;;;;8.18;5.82;;;;;;;15.62;78.81;63612.50;4982375;28;20227;-76
2022/10/23 06:00:09;;;;;;;10.23;5.55;;;;;;;15.73;78.20;63623.41;4987103;28;20196;-76
2022/10/23 06:02:39;;;;;;;9.50;5.28;;;;;;;15.85;80.23;63633.84;4981633;28;20287;-77
2022/10/23 06:05:09;;;;;;;6.88;4.07;;;;;;;15.87;82.11;63635.94;4990357;28;20235;-75
2022/10/23 06:07:37;;;;;;;8.27;5.38;;;;;;;15.86;82.77;63636.91;4982567;28;20227;-76
2022/10/23 06:10:08;;;;;;;5.85;4.90;;;;;;;15.91;84.34;63640.06;4986302;28;20227;-77
2022/10/23 06:12:35;;;;;;;6.65;5.20;;;;;;;15.94;84.76;63648.34;4982960;28;20223;-77
2022/10/23 06:15:02;;;;;;;6.93;4.75;;;;;;;15.89;86.23;63640.06;4969075;28;20548;-79
2022/10/23 06:17:29;;;;;;;7.10;4.75;;;;;;;15.85;87.18;63635.88;4972550;28;20556;-76
2022/10/23 06:20:01;;;;;;;7.40;4.70;;;;;;;15.83;87.20;63631.78;4969158;28;20421;-76
2022/10/23 06:22:29;;;;;;;6.93;3.17;;;;;;;15.86;86.54;63637.44;4974077;28;20228;-76
2022/10/23 06:24:59;;;;;;;7.35;3.78;;;;;;;15.89;86.38;63638.00;4982135;28;20235;-78
2022/10/23 06:27:27;;;;;;;7.03;4.53;;;;;;;16.05;85.48;63654.63;4969443;28;20459;-78
2022/10/23 06:29:53;;;;;;;5.50;3.13;;;;;;;15.92;87.82;63640.59;4984240;28;20294;-77
2022/10/23 06:32:20;;;;;;;6.30;4.65;;;;;;;16.06;87.11;63660.81;4987469;28;20220;-75
2022/10/23 06:34:47;;;;;;;7.90;4.60;;;;;;;16.23;85.68;63670.28;4985523;28;20203;-74
2022/10/23 06:37:14;;;;;;;5.00;3.95;;;;;;;16.31;86.30;63683.72;4979712;28;20228;-75
2022/10/23 06:39:41;;;;;;;4.25;3.85;;;;;;;16.32;85.61;63682.22;4978683;28;20210;-75
2022/10/23 06:42:09;;;;;;;7.18;4.32;;;;;;;16.25;86.00;63677.50;4987526;28;20561;-78
2022/10/23 06:44:37;;;;;;;10.77;4.50;;;;;;;16.13;85.91;63662.44;4980852;28;20230;-75
2022/10/23 06:47:04;;;;;;;9.90;4.82;;;;;;;16.12;85.16;63666.53;4982919;28;20231;-76
2022/10/23 06:49:30;;;;;;;10.85;4.25;;;;;;;16.18;83.21;63668.16;4983957;28;20538;-73
2022/10/23 06:51:57;;;;;;;6.95;5.10;;;;;;;16.16;83.53;63668.66;4984616;28;21171;-74
2022/10/23 06:54:24;;;;;;;7.43;4.30;;;;;;;16.14;83.00;63664.00;4986383;28;20199;-74
2022/10/23 06:56:52;;;;;;;6.95;4.65;;;;;;;16.14;82.07;63666.56;4972500;28;20251;-75
2022/10/23 06:59:20;;;;;;;8.57;4.82;;;;;;;16.03;82.24;63647.41;4983974;28;20210;-75
2022/10/23 07:01:47;;;;;;;9.23;4.32;;;;;;;16.07;82.09;63656.72;4985500;28;20501;-76
2022/10/23 07:04:14;;;;;;;10.70;5.45;;;;;;;16.08;81.95;63657.25;4985211;28;20227;-75
2022/10/23 07:06:40;;;;;;;7.75;4.97;;;;;;;16.03;82.71;63652.56;4983243;28;20238;-74
2022/10/23 07:09:08;;;;;;;8.35;4.57;;;;;;;16.23;81.42;63675.41;4987063;28;20230;-75
2022/10/23 07:11:36;;;;;;;8.18;4.55;;;;;;;16.21;80.13;63673.31;4979119;28;20231;-75
2022/10/23 07:14:03;;;;;;;5.30;4.30;;;;;;;16.34;80.10;63683.78;4973464;28;20224;-78
2022/10/23 07:16:31;;;;;;;7.10;4.72;;;;;;;16.54;78.24;63702.53;4984572;28;20420;-76
2022/10/23 07:19:00;;;;;;;9.30;4.38;;;;;;;16.59;77.69;63710.31;4967804;28;20216;-75
2022/10/23 07:21:28;;;;;;;7.45;4.20;;;;;;;16.63;76.84;63708.81;4974230;28;20215;-76
2022/10/23 07:23:55;;;;;;;10.05;4.50;;;;;;;16.63;77.14;63711.91;4977554;28;20208;-76
2022/10/23 07:26:22;;;;;;;8.23;4.55;;;;;;;16.77;76.11;63728.53;4983148;28;20586;-76
2022/10/23 07:28:50;;;;;;;5.60;4.35;;;;;;;16.93;74.74;63748.25;4989898;28;20199;-77
2022/10/23 07:31:17;;;;;;;4.22;3.33;;;;;;;16.71;75.93;63730.50;4977528;28;20236;-75
2022/10/23 07:33:45;;;;;;;11.00;3.38;;;;;;;16.96;74.70;63748.28;4981816;28;20207;-75
2022/10/23 07:36:13;;;;;;;5.22;3.70;;;;;;;17.08;72.20;63761.28;4994042;28;20219;-75
2022/10/23 07:38:39;;;;;;;4.35;2.88;;;;;;;17.18;70.65;63771.72;4971301;28;20215;-76
2022/10/23 07:41:07;;;;;;;5.65;2.85;;;;;;;17.22;69.36;63775.34;4977792;28;20264;-76
2022/10/23 07:43:34;;;;;;;4.28;3.10;;;;;;;17.32;69.87;63783.69;4985013;28;20246;-74
2022/10/23 07:46:01;;;;;;;5.97;3.33;;;;;;;17.49;68.29;63805.53;4979501;28;20454;-76
2022/10/23 07:48:28;;;;;;;4.20;2.85;;;;;;;17.59;66.11;63813.88;4980110;28;20504;-77
2022/10/23 07:50:59;;;;;;;3.25;3.00;;;;;;;17.67;65.53;63822.22;4974226;28;20237;-75
2022/10/23 07:53:26;;;;;;;4.15;3.70;;;;;;;17.69;65.53;63829.44;4985746;28;20188;-76
2022/10/23 07:55:54;;;;;;;4.00;3.05;;;;;;;17.78;64.70;63835.72;4985329;28;20199;-76
2022/10/23 07:58:21;;;;;;;4.10;2.47;;;;;;;17.83;63.67;63843.50;4973507;28;20208;-76
2022/10/23 08:00:53;;;;;;;5.13;2.72;;;;;;;17.90;64.03;63848.22;4976051;28;20231;-75
2022/10/23 08:03:20;;;;;;;2.75;2.65;;;;;;;18.05;63.72;63861.28;4988114;28;20238;-76
2022/10/23 08:05:47;;;;;;;6.45;2.83;;;;;;;18.09;63.32;63868.53;4984553;28;20227;-75
2022/10/23 08:08:15;;;;;;;7.40;3.13;;;;;;;18.19;62.30;63875.84;4965425;28;20247;-74
2022/10/23 08:10:42;;;;;;;3.03;2.83;;;;;;;17.92;63.99;63850.84;4984976;28;20235;-75
2022/10/23 08:13:12;;;;;;;3.00;2.63;;;;;;;17.96;63.14;63854.47;4986093;28;20204;-75
2022/10/23 08:15:39;;;;;;;2.58;2.47;;;;;;;17.99;62.30;63857.59;4978717;28;20208;-75
2022/10/23 08:18:06;;;;;;;3.33;3.03;;;;;;;18.08;61.78;63866.97;4971492;28;20242;-76
2022/10/23 08:20:33;;;;;;;5.78;2.83;;;;;;;18.19;61.50;63881.53;4985921;28;20203;-75
2022/10/23 08:23:00;;;;;;;2.42;2.30;;;;;;;18.31;60.57;63894.03;4985136;28;20532;-75
2022/10/23 08:25:29;;;;;;;3.65;2.90;;;;;;;18.28;60.56;63885.75;4978003;28;20243;-74
2022/10/23 08:27:56;;;;;;;2.70;2.50;;;;;;;18.08;60.88;63864.41;4985232;28;20223;-76
2022/10/23 08:30:22;;;;;;;6.75;2.60;;;;;;;17.91;62.18;63849.28;4987651;28;20454;-76
2022/10/23 08:32:49;;;;;;;3.38;2.70;;;;;;;18.15;60.47;63877.34;4987400;28;20227;-75
2022/10/23 08:35:17;;;;;;;5.40;2.20;;;;;;;18.17;59.14;63874.28;4989189;28;20215;-77
2022/10/23 08:37:44;;;;;;;3.97;2.38;;;;;;;18.34;59.08;63891.50;4976166;28;20228;-76
2022/10/23 08:40:15;;;;;;;4.68;2.97;;;;;;;18.38;59.81;63898.75;4969560;29;20196;-77
2022/10/23 08:42:48;;;;;;;3.63;3.38;;;;;;;18.49;58.54;63906.63;4970933;28;20223;-75
2022/10/23 08:45:28;;;;;;;2.88;2.53;;;;;;;18.50;57.99;63910.25;4974767;28;20192;-77
2022/10/23 08:47:59;;;;;;;3.28;3.03;;;;;;;18.42;59.50;63902.94;4989803;28;20566;-76
2022/10/23 08:50:32;;;;;;;2.45;2.35;;;;;;;18.43;58.28;63903.97;4990079;28;20241;-75
2022/10/23 08:53:04;;;;;;;2.60;2.35;;;;;;;18.35;60.24;63895.63;4987992;28;20220;-76
2022/10/23 08:55:36;;;;;;;5.60;3.00;;;;;;;18.53;57.91;63911.31;4987598;28;20207;-75
2022/10/23 08:58:09;;;;;;;9.82;3.30;;;;;;;18.53;59.51;63908.72;4989160;28;20562;-77
2022/10/23 09:00:36;;;;;;;3.03;2.58;;;;;;;18.53;58.12;63913.91;4986629;28;20194;-75
2022/10/23 09:03:05;;;;;;;4.30;3.00;;;;;;;18.31;59.48;63891.47;4988557;28;20219;-76
2022/10/23 09:05:42;;;;;;;3.33;2.20;;;;;;;18.34;57.96;63891.50;4988706;28;20206;-75
2022/10/23 09:08:22;;;;;;;2.92;2.70;;;;;;;18.58;58.42;63918.56;4987714;28;20211;-74
2022/10/23 09:11:02;;;;;;;2.67;2.47;;;;;;;18.84;56.67;63943.63;4976872;28;20392;-76
2022/10/23 09:13:48;;;;;;;2.90;1.73;;;;;;;19.02;56.56;63967.53;4970866;28;20204;-75
2022/10/23 09:16:23;;;;;;;3.55;2.20;;;;;;;18.96;54.11;63956.13;4970274;29;20219;-77
2022/10/23 09:18:51;;;;;;;3.72;2.90;;;;;;;19.02;54.71;63959.78;4972175;28;20196;-76
2022/10/23 09:21:19;;;;;;;1.83;1.63;;;;;;;18.94;52.63;63959.22;4976301;28;20270;-76
2022/10/23 09:23:46;;;;;;;2.10;2.00;;;;;;;19.15;53.54;63972.81;4987919;28;20207;-75
2022/10/23 09:26:16;;;;;;;2.10;2.00;;;;;;;19.09;54.09;63971.72;4988384;28;20223;-75
2022/10/23 09:28:47;;;;;;;4.68;2.17;;;;;;;18.84;54.77;63948.25;4979527;28;20211;-75
2022/10/23 09:31:16;;;;;;;3.40;2.65;;;;;;;18.96;55.65;63958.72;4984763;28;20226;-75
2022/10/23 09:33:54;;;;;;;3.72;2.40;;;;;;;19.18;53.57;63979.06;4971183;28;20211;-76
2022/10/23 09:36:23;;;;;;;2.22;2.03;;;;;;;19.28;52.98;63996.69;4967562;28;20227;-76
2022/10/23 09:38:53;;;;;;;3.20;2.70;;;;;;;19.51;53.10;64013.50;4969602;28;20200;-77
2022/10/23 09:41:23;;;;;;;2.65;2.28;;;;;;;19.49;52.71;64008.81;4986478;28;20401;-75
2022/10/23 09:44:02;;;;;;;2.60;2.40;;;;;;;19.54;51.75;64013.50;4982025;28;20200;-76
2022/10/23 09:46:40;;;;;;;2.83;2.63;;;;;;;19.69;51.88;64031.72;4967228;28;20220;-75
2022/10/23 09:49:16;;;;;;;3.90;2.25;;;;;;;19.79;51.77;64041.66;4967724;28;20208;-76
2022/10/23 09:51:56;;;;;;;3.10;2.83;;;;;;;19.95;52.28;64058.34;4968992;28;20543;-75
2022/10/23 09:54:24;;;;;;;2.65;2.40;;;;;;;19.96;50.78;64059.38;4967288;28;20220;-75
2022/10/23 09:56:54;;;;;;;2.85;2.63;;;;;;;20.07;50.86;64073.44;4969649;28;20267;-76
2022/10/23 09:59:25;;;;;;;4.05;3.13;;;;;;;19.95;50.80;64061.44;4987769;28;20200;-76
2022/10/23 10:01:55;;;;;;;3.60;2.47;;;;;;;19.83;51.65;64051.50;4983026;28;20228;-77
2022/10/23 10:04:32;;;;;;;2.50;2.40;;;;;;;19.92;50.66;64052.63;4970234;28;20435;-76
2022/10/23 10:07:02;;;;;;;3.20;2.08;;;;;;;20.06;50.89;64069.81;4979409;28;20239;-75
2022/10/23 10:09:29;;;;;;;4.68;2.53;;;;;;;20.12;51.35;64076.09;4986570;28;20469;-76
2022/10/23 10:12:02;;;;;;;2.53;2.33;;;;;;;19.96;50.31;64061.97;4974043;28;20246;-75
2022/10/23 10:14:50;;;;;;;2.47;2.15;;;;;;;19.89;50.70;64055.19;4968816;28;20196;-76
2022/10/23 10:17:24;;;;;;;2.25;2.05;;;;;;;19.90;51.22;64053.13;4967250;28;20223;-76
2022/10/23 10:20:18;;;;;;;2.42;2.33;;;;;;;20.14;50.02;64081.25;4968853;28;20196;-76
2022/10/23 10:22:53;;;;;;;2.75;2.55;;;;;;;20.18;51.00;64082.88;4967111;29;20226;-76
2022/10/23 10:25:27;;;;;;;2.53;2.33;;;;;;;20.27;51.21;64092.28;4975994;28;20402;-76
2022/10/23 10:28:07;;;;;;;2.38;2.20;;;;;;;20.23;48.13;64090.69;4988935;28;20226;-76
2022/10/23 10:30:45;;;;;;;1.67;1.58;;;;;;;20.42;46.63;64109.97;4987361;28;20237;-76
2022/10/23 10:33:18;;;;;;;1.70;1.60;;;;;;;20.20;47.87;64084.44;4980564;28;20195;-75
2022/10/23 10:35:52;;;;;;;4.30;2.10;;;;;;;20.50;48.01;64121.44;4987732;28;20199;-76
2022/10/23 10:38:44;;;;;;;3.80;1.83;;;;;;;20.38;45.77;64105.81;4984740;28;20213;-76
2022/10/23 10:41:34;;;;;;;2.40;1.30;;;;;;;20.44;45.37;64114.66;4981875;28;20215;-77
2022/10/23 10:44:18;;;;;;;6.53;1.80;;;;;;;20.63;45.33;64129.31;4986856;28;20196;-75
2022/10/23 10:47:00;;;;;;;1.63;1.58;;;;;;;20.62;45.26;64128.28;4985615;28;20234;-76
2022/10/23 10:49:36;;;;;;;1.58;1.48;;;;;;;20.66;44.88;64135.56;4990543;28;20492;-76
2022/10/23 10:52:14;;;;;;;1.77;1.50;;;;;;;20.46;45.50;64114.69;4978451;28;20230;-76
2022/10/23 10:54:53;;;;;;;2.30;2.10;;;;;;;20.49;45.38;64114.69;4984674;28;20218;-76
2022/10/23 10:57:29;;;;;;;1.63;1.55;;;;;;;20.32;46.28;64102.66;4983976;28;20230;-75
2022/10/23 11:00:01;;;;;;;1.58;1.48;;;;;;;20.19;46.09;64086.00;4971771;28;20419;-75
2022/10/23 11:02:36;;;;;;;3.35;1.85;;;;;;;20.25;46.07;64092.78;4977661;28;20226;-75
2022/10/23 11:05:18;;;;;;;2.70;1.52;;;;;;;20.54;45.02;64123.03;4984270;28;20212;-76
2022/10/23 11:07:54;;;;;;;2.15;1.50;;;;;;;20.53;44.67;64124.06;4964948;29;22415;-75
2022/10/23 11:10:21;;;;;;;1.40;1.40;;;;;;;20.37;45.44;64102.19;4976427;28;20310;-75
2022/10/23 11:12:49;;;;;;;1.67;1.55;;;;;;;20.69;44.78;64138.19;4979687;28;20277;-75
2022/10/23 11:15:19;;;;;;;1.75;1.65;;;;;;;20.46;46.08;64117.28;4986337;28;20263;-75
2022/10/23 11:17:50;;;;;;;1.65;1.52;;;;;;;20.58;45.71;64124.09;4983066;28;20227;-76
2022/10/23 11:20:33;;;;;;;2.30;1.73;;;;;;;20.63;45.00;64129.84;4970946;28;20211;-76
2022/10/23 11:23:08;;;;;;;1.42;1.40;;;;;;;20.51;43.96;64122.50;4987848;28;20222;-74
2022/10/23 11:26:00;;;;;;;1.80;1.70;;;;;;;20.42;44.46;64110.50;4972444;28;20265;-75
2022/10/23 11:28:45;;;;;;;3.17;1.77;;;;;;;20.30;45.84;64095.41;4993673;28;20214;-75
2022/10/23 11:31:24;;;;;;;2.03;1.92;;;;;;;20.29;46.29;64093.84;4971895;28;20234;-77
2022/10/23 11:34:22;;;;;;;2.30;2.10;;;;;;;20.59;45.75;64125.13;4981396;28;20500;-76
2022/10/23 11:36:53;;;;;;;5.00;1.75;;;;;;;20.29;45.81;64096.44;4986748;28;20234;-76
2022/10/23 11:39:23;;;;;;;2.25;2.05;;;;;;;20.45;45.87;64116.22;4987820;28;20262;-76
2022/10/23 11:41:53;;;;;;;2.17;1.98;;;;;;;20.55;46.41;64123.56;4986851;28;20227;-78
2022/10/23 11:44:26;;;;;;;2.35;2.15;;;;;;;20.38;46.34;64105.81;4988606;28;20251;-75